createdAt,value
2023-05-12T00:01:22.154Z,8.27
2023-05-12T00:04:27.574Z,7.70
2023-05-12T00:07:33.106Z,8.13
2023-05-12T00:10:41.647Z,9.35
2023-05-12T00:16:52.747Z,7.90
2023-05-12T00:19:58.083Z,7.88
2023-05-12T00:23:03.262Z,8.27
2023-05-12T00:26:11.218Z,8.48
2023-05-12T00:29:17.408Z,8.02
2023-05-12T00:32:23.165Z,8.48
2023-05-12T00:35:28.710Z,8.60
2023-05-12T00:38:34.860Z,8.95
2023-05-12T00:41:42.995Z,8.32
2023-05-12T00:44:48.412Z,9.52
2023-05-12T00:47:54.824Z,8.77
2023-05-12T00:51:01.093Z,9.15
2023-05-12T00:54:07.144Z,8.85
2023-05-12T00:57:15.876Z,9.48
2023-05-12T01:00:22.254Z,9.77
2023-05-12T01:03:28.454Z,9.50
2023-05-12T01:06:38.344Z,9.40
2023-05-12T01:09:44.992Z,8.93
2023-05-12T01:12:53.206Z,9.18
2023-05-12T01:15:59.573Z,9.48
2023-05-12T01:19:08.642Z,9.27
2023-05-12T01:25:20.727Z,9.50
2023-05-12T01:28:28.723Z,9.85
2023-05-12T01:31:34.404Z,9.55
2023-05-12T01:34:40.011Z,8.90
2023-05-12T01:37:46.609Z,9.13
2023-05-12T01:40:52.269Z,10.45
2023-05-12T01:44:00.462Z,9.88
2023-05-12T01:47:06.366Z,10.20
2023-05-12T01:50:12.521Z,10.07
2023-05-12T01:53:18.828Z,8.93
2023-05-12T01:56:24.103Z,10.65
2023-05-12T01:59:32.632Z,9.50
2023-05-12T02:02:40.297Z,10.02
2023-05-12T02:08:52.945Z,9.52
2023-05-12T02:11:58.585Z,10.00
2023-05-12T02:15:06.843Z,9.43
2023-05-12T02:18:15.757Z,9.45
2023-05-12T02:21:21.406Z,9.15
2023-05-12T02:24:29.296Z,8.82
2023-05-12T02:27:34.788Z,9.63
2023-05-12T02:30:49.072Z,9.48
2023-05-12T02:33:54.875Z,9.25
2023-05-12T02:37:00.646Z,10.23
2023-05-12T02:40:06.337Z,9.38
2023-05-12T02:43:12.599Z,10.40
2023-05-12T02:46:20.855Z,9.52
2023-05-12T02:49:26.300Z,10.18
2023-05-12T02:52:31.878Z,9.32
2023-05-12T02:55:37.441Z,9.43
2023-05-12T02:58:42.855Z,9.90
2023-05-12T03:01:51.601Z,9.55
2023-05-12T03:04:57.109Z,9.25
2023-05-12T03:08:02.486Z,9.38
2023-05-12T03:11:08.191Z,9.20
2023-05-12T03:14:13.550Z,10.18
2023-05-12T03:17:21.885Z,9.65
2023-05-12T03:20:28.061Z,9.50
2023-05-12T03:23:33.986Z,9.30
2023-05-12T03:26:39.272Z,9.98
2023-05-12T03:29:44.467Z,9.05
2023-05-12T03:32:52.527Z,10.13
2023-05-12T03:35:58.341Z,9.52
2023-05-12T03:39:04.597Z,10.10
2023-05-12T03:42:12.495Z,9.52
2023-05-12T03:45:19.674Z,9.48
2023-05-12T03:48:27.891Z,9.82
2023-05-12T03:51:33.403Z,9.70
2023-05-12T03:54:38.989Z,9.75
2023-05-12T03:57:44.371Z,9.35
2023-05-12T04:00:50.564Z,9.82
2023-05-12T04:03:58.826Z,9.93
2023-05-12T04:07:04.349Z,9.80
2023-05-12T04:10:10.593Z,10.30
2023-05-12T04:13:15.803Z,10.63
2023-05-12T04:16:21.272Z,9.73
2023-05-12T04:19:29.538Z,9.60
2023-05-12T04:22:35.003Z,10.13
2023-05-12T04:25:42.165Z,10.07
2023-05-12T04:28:48.028Z,9.57
2023-05-12T04:31:53.641Z,9.25
2023-05-12T04:35:01.674Z,9.98
2023-05-12T04:38:09.497Z,10.77
2023-05-12T04:41:16.481Z,10.25
2023-05-12T04:44:22.705Z,10.48
2023-05-12T04:47:30.746Z,10.52
2023-05-12T04:50:38.842Z,11.35
2023-05-12T04:53:44.215Z,11.75
2023-05-12T04:56:49.715Z,11.13
2023-05-12T04:59:56.178Z,12.13
2023-05-12T05:03:02.492Z,11.10
2023-05-12T05:06:11.086Z,11.07
2023-05-12T05:09:16.675Z,11.38
2023-05-12T05:12:22.528Z,10.23
2023-05-12T05:15:28.649Z,11.27
2023-05-12T05:18:34.696Z,11.63
2023-05-12T05:21:43.574Z,11.63
2023-05-12T05:24:49.223Z,11.77
2023-05-12T05:27:54.383Z,11.18
2023-05-12T05:31:00.156Z,12.18
2023-05-12T05:34:05.480Z,12.07
2023-05-12T05:37:13.981Z,13.38
2023-05-12T05:40:20.638Z,12.25
2023-05-12T05:43:26.543Z,12.15
2023-05-12T05:46:32.711Z,11.23
2023-05-12T05:49:38.342Z,11.63
2023-05-12T05:52:47.265Z,12.98
2023-05-12T05:55:52.863Z,13.07
2023-05-12T05:58:58.554Z,13.02
2023-05-12T06:02:04.034Z,11.95
2023-05-12T06:05:10.234Z,12.02
2023-05-12T06:08:18.555Z,11.95
2023-05-12T06:14:29.091Z,11.07
2023-05-12T06:17:34.888Z,11.38
2023-05-12T06:20:41.403Z,12.35
2023-05-12T06:23:49.433Z,11.98
2023-05-12T06:26:54.800Z,12.05
2023-05-12T06:30:01.938Z,9.25
2023-05-12T06:33:10.270Z,10.45
2023-05-12T06:36:15.780Z,9.25
2023-05-12T06:39:23.891Z,8.02
2023-05-12T06:42:30.104Z,8.30
2023-05-12T06:45:35.511Z,8.18
2023-05-12T06:48:41.391Z,9.43
2023-05-12T06:51:46.974Z,7.93
2023-05-12T06:54:55.015Z,7.40
2023-05-12T06:58:00.580Z,7.28
2023-05-12T07:01:06.659Z,41.50
2023-05-12T07:04:12.183Z,6.15
2023-05-12T07:07:17.705Z,5.85
2023-05-12T07:10:25.868Z,7.22
2023-05-12T07:13:31.752Z,3.15
2023-05-12T07:16:37.058Z,2.92
2023-05-12T07:19:44.008Z,3.53
2023-05-12T07:22:49.661Z,2.60
2023-05-12T07:25:57.837Z,2.45
2023-05-12T07:29:04.356Z,2.47
2023-05-12T07:32:10.056Z,2.25
2023-05-12T07:35:15.656Z,2.47
2023-05-12T07:38:20.961Z,2.35
2023-05-12T07:41:29.364Z,2.60
2023-05-12T07:44:34.989Z,2.22
2023-05-12T07:47:40.656Z,2.17
2023-05-12T07:50:46.112Z,2.20
2023-05-12T07:53:51.295Z,2.10
2023-05-12T07:56:59.635Z,2.65
2023-05-12T08:00:05.258Z,3.35
2023-05-12T08:03:19.729Z,2.53
2023-05-12T08:06:25.306Z,2.33
2023-05-12T08:09:30.893Z,2.72
2023-05-12T08:12:38.811Z,2.58
2023-05-12T08:15:44.426Z,2.22
2023-05-12T08:18:49.842Z,2.63
2023-05-12T08:21:55.452Z,2.47
2023-05-12T08:25:01.068Z,3.00
2023-05-12T08:28:15.099Z,2.80
2023-05-12T08:31:21.249Z,3.00
2023-05-12T08:34:27.511Z,2.72
2023-05-12T08:37:34.569Z,3.60
2023-05-12T08:40:44.979Z,2.65
2023-05-12T08:43:53.787Z,2.70
2023-05-12T08:47:00.545Z,2.90
2023-05-12T08:50:06.867Z,2.88
2023-05-12T08:53:14.666Z,2.67
2023-05-12T08:59:33.135Z,2.65
2023-05-12T09:05:57.999Z,2.47
2023-05-12T09:09:03.462Z,3.85
2023-05-12T09:12:11.082Z,2.67
2023-05-12T09:15:22.464Z,3.35
2023-05-12T09:18:28.202Z,2.83
2023-05-12T09:21:34.472Z,2.80
2023-05-12T09:24:40.590Z,2.65
2023-05-12T09:27:45.796Z,3.17
2023-05-12T09:30:53.706Z,2.80
2023-05-12T09:37:05.445Z,3.17
2023-05-12T09:40:11.983Z,3.30
2023-05-12T09:43:17.830Z,3.33
2023-05-12T09:46:27.777Z,2.78
2023-05-12T09:49:33.420Z,3.83
2023-05-12T09:52:39.773Z,3.13
2023-05-12T09:55:46.449Z,2.85
2023-05-12T09:58:52.867Z,3.03
2023-05-12T10:02:02.534Z,3.30
2023-05-12T10:05:10.092Z,17.23
2023-05-12T10:08:16.928Z,3.40
2023-05-12T10:11:22.813Z,2.80
2023-05-12T10:14:29.263Z,3.38
2023-05-12T10:17:38.316Z,2.92
2023-05-12T10:20:44.153Z,3.22
2023-05-12T10:23:50.463Z,2.80
2023-05-12T10:26:57.194Z,3.28
2023-05-12T10:30:02.876Z,2.78
2023-05-12T10:33:13.632Z,3.13
2023-05-12T10:36:22.393Z,3.05
2023-05-12T10:39:31.200Z,4.05
2023-05-12T10:42:40.901Z,2.80
2023-05-12T10:45:46.805Z,3.33
2023-05-12T10:48:59.292Z,2.75
2023-05-12T10:52:05.262Z,2.70
2023-05-12T10:55:14.822Z,2.90
2023-05-12T10:58:20.889Z,2.90
2023-05-12T11:01:27.653Z,2.90
2023-05-12T11:04:46.352Z,3.13
2023-05-12T11:07:53.233Z,3.00
2023-05-12T11:11:00.086Z,2.87
2023-05-12T11:14:05.706Z,2.90
2023-05-12T11:17:11.832Z,2.83
2023-05-12T11:20:30.186Z,2.78
2023-05-12T11:23:36.452Z,2.55
2023-05-12T11:26:43.134Z,2.85
2023-05-12T11:29:48.805Z,2.63
2023-05-12T11:33:03.726Z,2.63
2023-05-12T11:36:12.797Z,3.25
2023-05-12T11:39:19.857Z,2.95
2023-05-12T11:42:26.023Z,2.33
2023-05-12T11:45:34.398Z,2.80
2023-05-12T11:48:39.904Z,2.47
2023-05-12T11:51:48.003Z,3.05
2023-05-12T11:54:54.202Z,3.40
2023-05-12T11:58:03.381Z,2.67
2023-05-12T12:01:12.517Z,3.25
2023-05-12T12:04:18.145Z,2.92
2023-05-12T12:07:34.738Z,3.25
2023-05-12T12:10:40.125Z,3.00
2023-05-12T12:13:50.724Z,2.60
2023-05-12T12:16:56.020Z,3.30
2023-05-12T12:20:01.391Z,2.83
2023-05-12T12:23:12.753Z,3.00
2023-05-12T12:26:21.119Z,3.13
2023-05-12T12:29:28.693Z,2.72
2023-05-12T12:32:34.909Z,2.88
2023-05-12T12:35:40.326Z,2.80
2023-05-12T12:38:48.563Z,2.90
2023-05-12T12:41:57.181Z,2.35
2023-05-12T12:45:03.292Z,3.65
2023-05-12T12:48:11.217Z,2.70
2023-05-12T12:51:16.720Z,3.08
2023-05-12T12:54:27.680Z,2.45
2023-05-12T12:57:32.935Z,3.47
2023-05-12T13:00:38.284Z,3.20
2023-05-12T13:03:43.719Z,2.90
2023-05-12T13:06:49.543Z,2.70
2023-05-12T13:09:57.474Z,3.05
2023-05-12T13:13:02.765Z,3.15
2023-05-12T13:16:08.928Z,3.35
2023-05-12T13:19:14.643Z,3.25
2023-05-12T13:22:20.115Z,3.42
2023-05-12T13:25:28.535Z,3.33
2023-05-12T13:28:33.909Z,3.42
2023-05-12T13:31:41.562Z,2.90
2023-05-12T13:34:46.951Z,3.10
2023-05-12T13:37:52.653Z,3.65
2023-05-12T13:41:00.573Z,2.70
2023-05-12T13:44:06.599Z,2.55
2023-05-12T13:47:12.193Z,2.83
2023-05-12T13:50:17.432Z,2.55
2023-05-12T13:53:22.945Z,2.47
2023-05-12T13:56:31.429Z,2.88
2023-05-12T13:59:36.765Z,2.80
2023-05-12T14:02:42.584Z,2.45
2023-05-12T14:05:48.057Z,2.97
2023-05-12T14:08:53.438Z,2.80
2023-05-12T14:12:02.198Z,2.75
2023-05-12T14:15:20.058Z,2.80
2023-05-12T14:18:34.183Z,3.13
2023-05-12T14:21:42.896Z,3.13
2023-05-12T14:24:48.234Z,3.42
2023-05-12T14:27:56.548Z,3.00
2023-05-12T14:31:02.467Z,2.90
2023-05-12T14:34:09.481Z,3.70
2023-05-12T14:37:15.325Z,2.97
2023-05-12T14:40:20.685Z,3.22
2023-05-12T14:43:29.399Z,3.20
2023-05-12T14:46:34.965Z,3.33
2023-05-12T14:49:40.441Z,2.72
2023-05-12T14:52:45.857Z,3.05
2023-05-12T14:55:52.642Z,3.25
2023-05-12T14:59:00.692Z,3.13
2023-05-12T15:02:06.378Z,3.55
2023-05-12T15:05:12.486Z,3.33
2023-05-12T15:08:18.855Z,3.10
2023-05-12T15:11:24.788Z,3.25
2023-05-12T15:14:32.616Z,3.28
2023-05-12T15:17:38.112Z,3.40
2023-05-12T15:20:43.552Z,2.90
2023-05-12T15:23:49.602Z,3.20
2023-05-12T15:26:55.114Z,2.63
2023-05-12T15:30:03.262Z,3.47
2023-05-12T15:33:10.933Z,3.08
2023-05-12T15:36:16.907Z,3.08
2023-05-12T15:39:23.496Z,3.10
2023-05-12T15:42:33.159Z,3.13
2023-05-12T15:45:41.406Z,3.38
2023-05-12T15:51:52.126Z,3.33
2023-05-12T15:54:57.833Z,2.80
2023-05-12T15:58:03.856Z,2.95
2023-05-12T16:01:12.440Z,2.80
2023-05-12T16:04:17.920Z,2.97
2023-05-12T16:07:23.832Z,2.90
2023-05-12T16:10:29.645Z,2.70
2023-05-12T16:13:35.046Z,2.60
2023-05-12T16:16:48.711Z,2.50
2023-05-12T16:19:56.622Z,3.30
2023-05-12T16:23:03.071Z,3.10
2023-05-12T16:26:08.664Z,2.88
2023-05-12T16:29:14.160Z,3.15
2023-05-12T16:32:22.387Z,2.72
2023-05-12T16:35:28.175Z,2.80
2023-05-12T16:38:35.061Z,2.83
2023-05-12T16:41:40.686Z,2.55
2023-05-12T16:44:46.276Z,4.35
2023-05-12T16:47:54.870Z,2.42
2023-05-12T16:51:03.080Z,2.80
2023-05-12T16:54:08.277Z,2.63
2023-05-12T16:57:13.855Z,2.83
2023-05-12T17:00:19.837Z,3.17
2023-05-12T17:03:28.162Z,3.20
2023-05-12T17:09:38.794Z,3.17
2023-05-12T17:12:44.306Z,3.60
2023-05-12T17:15:49.966Z,3.35
2023-05-12T17:22:06.445Z,3.58
2023-05-12T17:25:12.961Z,3.03
2023-05-12T17:28:18.293Z,3.42
2023-05-12T17:31:23.791Z,3.25
2023-05-12T17:34:31.653Z,3.92
2023-05-12T17:37:37.793Z,3.35
2023-05-12T17:40:43.520Z,3.33
2023-05-12T17:43:49.374Z,3.47
2023-05-12T17:46:54.937Z,3.63
2023-05-12T17:50:02.925Z,4.40
2023-05-12T17:53:09.647Z,3.85
2023-05-12T17:56:15.011Z,3.90
2023-05-12T17:59:20.116Z,3.55
2023-05-12T18:02:25.782Z,4.60
2023-05-12T18:05:34.906Z,5.50
2023-05-12T18:08:41.610Z,4.63
2023-05-12T18:11:47.772Z,4.13
2023-05-12T18:14:53.178Z,4.55
2023-05-12T18:17:58.451Z,5.75
2023-05-12T18:21:06.898Z,4.85
2023-05-12T18:24:12.540Z,4.78
2023-05-12T18:27:18.155Z,4.95
2023-05-12T18:30:23.577Z,5.10
2023-05-12T18:33:29.084Z,4.88
2023-05-12T18:36:37.159Z,5.13
2023-05-12T18:39:42.556Z,4.88
2023-05-12T18:42:48.127Z,5.13
2023-05-12T18:45:53.986Z,5.05
2023-05-12T18:48:59.957Z,5.80
2023-05-12T18:52:08.341Z,4.95
2023-05-12T18:55:14.578Z,5.38
2023-05-12T18:58:20.226Z,6.05
2023-05-12T19:01:26.088Z,5.55
2023-05-12T19:04:31.771Z,6.32
2023-05-12T19:07:39.827Z,5.68
2023-05-12T19:10:46.023Z,6.00
2023-05-12T19:13:52.664Z,5.50
2023-05-12T19:16:59.141Z,6.00
2023-05-12T19:20:04.355Z,6.25
2023-05-12T19:23:12.926Z,5.75
2023-05-12T19:26:18.350Z,5.95
2023-05-12T19:29:24.136Z,6.45
2023-05-12T19:32:29.487Z,5.85
2023-05-12T19:35:35.314Z,6.68
2023-05-12T19:38:44.488Z,6.50
2023-05-12T19:41:50.501Z,6.60
2023-05-12T19:44:55.860Z,6.43
2023-05-12T19:48:01.716Z,7.45
2023-05-12T19:51:07.240Z,6.55
2023-05-12T19:54:15.361Z,6.05
2023-05-12T19:57:21.605Z,5.95
2023-05-12T20:00:27.560Z,6.32
2023-05-12T20:03:33.069Z,6.40
2023-05-12T20:06:38.755Z,5.85
2023-05-12T20:09:47.042Z,6.57
2023-05-12T20:12:52.444Z,6.72
2023-05-12T20:15:57.742Z,6.75
2023-05-12T20:19:03.348Z,8.75
2023-05-12T20:22:09.383Z,7.00
2023-05-12T20:25:18.281Z,7.57
2023-05-12T20:28:24.352Z,6.88
2023-05-12T20:31:29.995Z,7.78
2023-05-12T20:34:35.192Z,7.45
2023-05-12T20:37:41.676Z,7.57
2023-05-12T20:40:50.053Z,7.07
2023-05-12T20:43:55.830Z,8.70
2023-05-12T20:47:01.358Z,8.27
2023-05-12T20:50:07.388Z,8.40
2023-05-12T20:53:12.817Z,8.45
2023-05-12T20:56:20.590Z,8.02
2023-05-12T20:59:26.529Z,8.23
2023-05-12T21:02:32.505Z,8.30
2023-05-12T21:05:37.806Z,7.72
2023-05-12T21:08:43.587Z,6.93
2023-05-12T21:11:51.450Z,8.63
2023-05-12T21:14:57.206Z,7.93
2023-05-12T21:18:02.728Z,7.78
2023-05-12T21:21:08.365Z,8.43
2023-05-12T21:24:13.756Z,8.25
2023-05-12T21:27:21.788Z,7.60
2023-05-12T21:30:27.485Z,8.98
2023-05-12T21:33:33.533Z,8.68
2023-05-12T21:36:39.081Z,8.40
2023-05-12T21:39:44.654Z,8.18
2023-05-12T21:42:52.507Z,8.38
2023-05-12T21:45:58.524Z,8.77
2023-05-12T21:49:04.041Z,9.30
2023-05-12T21:52:09.662Z,8.27
2023-05-12T21:55:15.560Z,8.70
2023-05-12T21:58:24.246Z,9.18
2023-05-12T22:04:35.155Z,8.27
2023-05-12T22:07:40.438Z,8.50
2023-05-12T22:10:46.180Z,8.45
2023-05-12T22:13:54.205Z,9.63
2023-05-12T22:17:00.127Z,9.60
2023-05-12T22:20:06.009Z,8.32
2023-05-12T22:23:11.574Z,9.60
2023-05-12T22:26:17.013Z,9.85
2023-05-12T22:29:25.434Z,9.95
2023-05-12T22:32:30.818Z,9.85
2023-05-12T22:35:36.227Z,9.10
2023-05-12T22:38:41.613Z,9.27
2023-05-12T22:41:47.080Z,8.80
2023-05-12T22:44:55.430Z,8.63
2023-05-12T22:48:01.325Z,7.25
2023-05-12T22:51:07.030Z,8.38
2023-05-12T22:54:12.682Z,8.88
2023-05-12T22:57:18.156Z,9.15
2023-05-12T23:00:26.833Z,8.18
2023-05-12T23:03:33.310Z,9.32
2023-05-12T23:06:38.566Z,8.48
2023-05-12T23:09:44.051Z,7.78
2023-05-12T23:12:49.457Z,8.73
2023-05-12T23:15:57.700Z,8.85
2023-05-12T23:19:03.139Z,8.88
2023-05-12T23:22:08.991Z,9.68
2023-05-12T23:25:14.344Z,8.43
2023-05-12T23:28:19.894Z,8.38
2023-05-12T23:31:27.950Z,8.60
2023-05-12T23:34:33.427Z,8.70
2023-05-12T23:37:38.899Z,8.50
2023-05-12T23:40:44.457Z,8.30
2023-05-12T23:43:50.351Z,7.70
2023-05-12T23:46:58.529Z,7.45
2023-05-12T23:50:04.172Z,8.13
2023-05-12T23:53:09.819Z,7.85
2023-05-12T23:56:15.021Z,8.75
2023-05-12T23:59:20.553Z,8.40
